Time;durP1;ratioP1;P1;durP2;ratioP2;P2;SDS_P1;SDS_P2;PMS_P1;PMS_P2;Temp;Humidity;BMP_temperature;BMP_pressure;BME280_temperature;BME280_humidity;BME280_pressure;Samples;Min_cycle;Max_cycle;Signal;HPM_P1;HPM_P2
2024/05/05 00:02:01;;;;;;;;;;;;;;;12.93;100.00;100738.50;5412429;26;19929;-61
2024/05/05 00:04:26;;;;;;;;;;;;;;;12.95;100.00;100734.13;5427850;26;20063;-62
2024/05/05 00:06:52;;;;;;;;;;;;;;;12.89;100.00;100737.53;5422192;26;19928;-61
2024/05/05 00:09:17;;;;;;;;;;;;;;;12.95;100.00;100733.22;5431548;26;20342;-60
2024/05/05 00:11:43;;;;;;;;;;;;;;;12.95;100.00;100734.13;5425922;26;20030;-60
2024/05/05 00:14:10;;;;;;;;;;;;;;;13.06;100.00;100724.56;5423535;26;19944;-60
2024/05/05 00:16:35;;;;;;;;;;;;;;;13.05;100.00;100721.88;5410791;26;20351;-61
2024/05/05 00:19:00;;;;;;;;;;;;;;;13.03;100.00;100721.84;5411445;26;20371;-60
2024/05/05 00:21:26;;;;;;;;;;;;;;;13.05;100.00;100717.47;5429029;26;19997;-60
2024/05/05 00:23:51;;;;;;;;;;;;;;;13.09;100.00;100719.31;5444587;26;19932;-59
2024/05/05 00:26:16;;;;;;;;;;;;;;;13.06;100.00;100715.72;5427948;26;20006;-60
2024/05/05 00:28:42;;;;;;;;;;;;;;;13.10;100.00;100713.13;5415719;26;19937;-64
2024/05/05 00:31:07;;;;;;;;;;;;;;;13.10;100.00;100697.22;5386451;26;20351;-65
2024/05/05 00:33:33;;;;;;;;;;;;;;;13.15;100.00;100703.53;5387847;26;19929;-61
2024/05/05 00:35:58;;;;;;;;;;;;;;;13.17;100.00;100696.47;5409852;26;20303;-60
2024/05/05 00:38:23;;;;;;;;;;;;;;;13.16;100.00;100694.69;5411013;26;19936;-60
2024/05/05 00:40:48;;;;;;;;;;;;;;;13.13;100.00;100685.75;5385820;26;19998;-59
2024/05/05 00:43:14;;;;;;;;;;;;;;;13.13;100.00;100691.97;5410562;26;20421;-61
2024/05/05 00:45:39;;;;;;;;;;;;;;;13.10;100.00;100691.03;5401564;26;20014;-61
2024/05/05 00:48:04;;;;;;;;;;;;;;;13.08;100.00;100687.44;5377263;26;19999;-61
2024/05/05 00:50:30;;;;;;;;;;;;;;;13.10;100.00;100683.94;5390379;26;20435;-60
2024/05/05 00:52:56;;;;;;;;;;;;;;;13.11;100.00;100683.09;5405214;26;19964;-61
2024/05/05 00:55:21;;;;;;;;;;;;;;;13.14;100.00;100677.84;5387856;26;20781;-61
2024/05/05 00:57:50;;;;;;;;;;;;;;;13.13;100.00;100681.34;5396685;26;19986;-60
2024/05/05 01:00:16;;;;;;;;;;;;;;;13.08;100.00;100677.72;5385697;26;19961;-62
2024/05/05 01:02:41;;;;;;;;;;;;;;;13.15;100.00;100668.16;5394833;26;19936;-60
2024/05/05 01:05:07;;;;;;;;;;;;;;;13.14;100.00;100667.22;5389656;26;20483;-61
2024/05/05 01:07:33;;;;;;;;;;;;;;;13.10;100.00;100660.06;5397558;26;19964;-61
2024/05/05 01:09:59;;;;;;;;;;;;;;;13.10;100.00;100664.47;5382490;26;19935;-62
2024/05/05 01:12:24;;;;;;;;;;;;;;;13.10;100.00;100665.38;5405283;26;20256;-61
2024/05/05 01:14:49;;;;;;;;;;;;;;;13.11;100.00;100655.66;5408358;26;19936;-61
2024/05/05 01:17:14;;;;;;;;;;;;;;;13.16;100.00;100660.19;5390820;26;20056;-60
2024/05/05 01:19:39;;;;;;;;;;;;;;;13.22;100.00;100654.97;5394818;26;19929;-61
2024/05/05 01:22:04;;;;;;;;;;;;;;;13.21;100.00;100658.50;5408162;26;19936;-60
2024/05/05 01:24:29;;;;;;;;;;;;;;;13.26;100.00;100649.72;5396462;26;20369;-62
2024/05/05 01:26:55;;;;;;;;;;;;;;;13.22;100.00;100649.66;5399999;26;19936;-60
2024/05/05 01:29:20;;;;;;;;;;;;;;;13.22;100.00;100660.28;5389930;26;19998;-62
2024/05/05 01:31:45;;;;;;;;;;;;;;;13.24;100.00;100647.94;5390596;26;20592;-60
2024/05/05 01:34:10;;;;;;;;;;;;;;;13.23;100.00;100646.13;5398599;26;19963;-61
2024/05/05 01:36:35;;;;;;;;;;;;;;;13.20;100.00;100650.50;5411347;26;20337;-60
2024/05/05 01:39:01;;;;;;;;;;;;;;;13.18;100.00;100646.94;5386964;26;19980;-61
2024/05/05 01:41:26;;;;;;;;;;;;;;;13.22;100.00;100643.47;5411823;26;20044;-61
2024/05/05 01:43:51;;;;;;;;;;;;;;;13.18;100.00;100631.91;5391853;26;20003;-61
2024/05/05 01:46:16;;;;;;;;;;;;;;;13.17;100.00;100635.41;5395319;26;19929;-60
2024/05/05 01:48:41;;;;;;;;;;;;;;;13.22;100.00;100643.47;5392445;26;19981;-61
2024/05/05 01:51:06;;;;;;;;;;;;;;;13.24;100.00;100637.31;5399998;26;19974;-62
2024/05/05 01:53:32;;;;;;;;;;;;;;;13.20;100.00;100629.28;5389247;26;20471;-60
2024/05/05 01:55:57;;;;;;;;;;;;;;;13.19;100.00;100628.38;5386526;26;20241;-61
2024/05/05 01:58:22;;;;;;;;;;;;;;;13.19;100.00;100623.06;5407655;26;19980;-61
2024/05/05 02:00:47;;;;;;;;;;;;;;;13.19;100.00;100620.41;5403133;26;20054;-63
2024/05/05 02:03:12;;;;;;;;;;;;;;;13.23;100.00;100619.59;5400135;26;19960;-60
2024/05/05 02:05:37;;;;;;;;;;;;;;;13.23;100.00;100619.59;5394940;26;20729;-60
2024/05/05 02:08:03;;;;;;;;;;;;;;;13.24;100.00;100609.88;5411202;26;20291;-60
2024/05/05 02:10:28;;;;;;;;;;;;;;;13.26;100.00;100607.25;5410927;26;19959;-62
2024/05/05 02:12:53;;;;;;;;;;;;;;;13.20;100.00;100597.44;5410537;26;19936;-60
2024/05/05 02:15:18;;;;;;;;;;;;;;;13.17;100.00;100606.22;5410610;26;19929;-59
2024/05/05 02:17:43;;;;;;;;;;;;;;;13.11;100.00;100608.78;5411141;26;20394;-60
2024/05/05 02:20:09;;;;;;;;;;;;;;;13.13;100.00;100603.50;5387113;26;20024;-63
2024/05/05 02:22:34;;;;;;;;;;;;;;;13.09;100.00;100599.91;5407761;26;19936;-61
2024/05/05 02:24:59;;;;;;;;;;;;;;;13.12;100.00;100605.25;5409397;26;19929;-61
2024/05/05 02:27:24;;;;;;;;;;;;;;;13.12;100.00;100601.72;5411496;26;19940;-61
2024/05/05 02:29:49;;;;;;;;;;;;;;;13.15;100.00;100602.69;5411944;26;19929;-61
2024/05/05 02:32:15;;;;;;;;;;;;;;;13.14;100.00;100599.97;5386195;26;19960;-62
2024/05/05 02:34:40;;;;;;;;;;;;;;;13.13;100.00;100595.53;5411343;26;19968;-61
2024/05/05 02:37:05;;;;;;;;;;;;;;;13.13;100.00;100596.44;5418044;26;20364;-61
2024/05/05 02:39:30;;;;;;;;;;;;;;;13.09;100.00;100594.59;5384634;26;20373;-61
2024/05/05 02:41:55;;;;;;;;;;;;;;;13.11;100.00;100592.88;5420148;26;19967;-61
2024/05/05 02:44:20;;;;;;;;;;;;;;;13.09;100.00;100599.00;5409202;26;19929;-61
2024/05/05 02:46:46;;;;;;;;;;;;;;;13.15;100.00;100600.03;5377742;26;19941;-60
2024/05/05 02:49:11;;;;;;;;;;;;;;;13.12;100.00;100589.34;5395895;26;20404;-67
2024/05/05 02:51:36;;;;;;;;;;;;;;;13.15;100.00;100594.72;5398358;26;19936;-61
2024/05/05 02:54:01;;;;;;;;;;;;;;;13.18;100.00;100599.16;5392374;26;19959;-63
2024/05/05 02:56:26;;;;;;;;;;;;;;;13.13;100.00;100600.84;5394003;26;20456;-61
2024/05/05 02:58:52;;;;;;;;;;;;;;;13.14;100.00;100598.22;5405610;26;20052;-62
2024/05/05 03:01:17;;;;;;;;;;;;;;;13.15;100.00;100594.72;5384950;26;19940;-61
2024/05/05 03:03:43;;;;;;;;;;;;;;;13.12;100.00;100599.97;5391750;26;20395;-61
2024/05/05 03:06:09;;;;;;;;;;;;;;;13.09;100.00;100599.91;5379258;26;20476;-61
2024/05/05 03:08:34;;;;;;;;;;;;;;;13.12;100.00;100604.38;5399242;26;20335;-61
2024/05/05 03:10:59;;;;;;;;;;;;;;;13.14;100.00;100598.22;5388996;26;19929;-60
2024/05/05 03:13:24;;;;;;;;;;;;;;;13.13;100.00;100596.44;5405405;26;19929;-62
2024/05/05 03:15:49;;;;;;;;;;;;;;;13.13;100.00;100607.03;5401161;26;19936;-60
2024/05/05 03:18:15;;;;;;;;;;;;;;;13.11;100.00;100598.16;5386982;26;19975;-61
2024/05/05 03:20:40;;;;;;;;;;;;;;;13.13;100.00;100599.09;5411048;26;20290;-61
2024/05/05 03:23:05;;;;;;;;;;;;;;;13.14;100.00;100595.56;5407421;26;19936;-61
2024/05/05 03:25:31;;;;;;;;;;;;;;;13.14;100.00;100592.91;5410361;26;19940;-61
2024/05/05 03:27:56;;;;;;;;;;;;;;;13.14;100.00;100595.56;5409663;26;19948;-62
2024/05/05 03:30:21;;;;;;;;;;;;;;;13.13;100.00;100591.13;5408479;26;19929;-61
2024/05/05 03:32:47;;;;;;;;;;;;;;;13.13;100.00;100585.81;5407294;26;19935;-61
2024/05/05 03:35:12;;;;;;;;;;;;;;;13.09;100.00;100583.97;5383776;26;19964;-61
2024/05/05 03:37:37;;;;;;;;;;;;;;;13.06;100.00;100583.94;5384720;26;19960;-61
2024/05/05 03:40:02;;;;;;;;;;;;;;;13.07;100.00;100591.03;5391926;26;20455;-60
2024/05/05 03:42:28;;;;;;;;;;;;;;;13.06;100.00;100589.25;5408576;26;19986;-61
2024/05/05 03:44:53;;;;;;;;;;;;;;;13.05;100.00;100578.59;5409312;26;19941;-61
2024/05/05 03:47:18;;;;;;;;;;;;;;;13.01;100.00;100585.63;5406860;26;20357;-61
2024/05/05 03:49:43;;;;;;;;;;;;;;;12.95;100.00;100580.25;5410269;26;19929;-60
2024/05/05 03:52:08;;;;;;;;;;;;;;;12.92;100.00;100596.09;5392370;26;19961;-62
2024/05/05 03:54:34;;;;;;;;;;;;;;;12.89;100.00;100585.44;5385945;26;19929;-60
2024/05/05 03:56:59;;;;;;;;;;;;;;;12.84;100.00;100577.41;5395227;26;19941;-61
2024/05/05 03:59:24;;;;;;;;;;;;;;;12.87;100.00;100588.06;5398596;26;20389;-60
2024/05/05 04:01:49;;;;;;;;;;;;;;;12.87;100.00;100585.41;5386741;26;19960;-62
2024/05/05 04:04:16;;;;;;;;;;;;;;;12.95;100.00;100585.53;5393288;26;19933;-61
2024/05/05 04:06:41;;;;;;;;;;;;;;;13.00;100.00;100583.84;5377360;26;20715;-60
2024/05/05 04:09:07;;;;;;;;;;;;;;;13.04;100.00;100585.66;5381207;26;19929;-61
2024/05/05 04:11:32;;;;;;;;;;;;;;;13.12;100.00;100588.44;5373874;26;20396;-62
2024/05/05 04:13:57;;;;;;;;;;;;;;;13.17;100.00;100582.34;5373974;26;20429;-60
2024/05/05 04:16:22;;;;;;;;;;;;;;;13.24;100.00;100592.19;5381653;26;20366;-60
2024/05/05 04:18:47;;;;;;;;;;;;;;;13.29;100.00;100579.00;5377026;26;19986;-61
2024/05/05 04:21:12;;;;;;;;;;;;;;;13.34;100.00;100573.72;5393989;26;20245;-60
2024/05/05 04:23:38;;;;;;;;;;;;;;;13.39;100.00;100572.91;5380483;26;19967;-62
2024/05/05 04:26:03;;;;;;;;;;;;;;;13.41;100.00;100580.91;5379235;26;19940;-60
2024/05/05 04:28:28;;;;;;;;;;;;;;;13.35;100.00;100575.50;5373053;26;19963;-61
2024/05/05 04:30:53;;;;;;;;;;;;;;;13.27;100.00;100571.88;5390997;26;19940;-61
2024/05/05 04:33:19;;;;;;;;;;;;;;;13.28;100.00;100584.28;5378636;26;19937;-61
2024/05/05 04:35:44;;;;;;;;;;;;;;;13.33;100.00;100578.16;5380269;26;19929;-61
2024/05/05 04:38:09;;;;;;;;;;;;;;;13.36;100.00;100582.59;5383649;26;20291;-61
2024/05/05 04:40:34;;;;;;;;;;;;;;;13.40;100.00;100573.81;5399789;26;19936;-60
2024/05/05 04:42:59;;;;;;;;;;;;;;;13.47;100.00;100570.38;5407842;26;19929;-60
2024/05/05 04:45:24;;;;;;;;;;;;;;;13.49;100.00;100576.59;5407941;26;19929;-60
2024/05/05 04:47:50;;;;;;;;;;;;;;;13.46;100.00;100568.59;5405776;26;20365;-61
2024/05/05 04:50:15;;;;;;;;;;;;;;;13.52;100.00;100563.34;5408187;26;19937;-62
2024/05/05 04:52:40;;;;;;;;;;;;;;;13.50;100.00;100565.09;5399837;26;19936;-61
2024/05/05 04:55:05;;;;;;;;;;;;;;;13.55;100.00;100566.03;5404385;26;20452;-61
2024/05/05 04:57:31;;;;;;;;;;;;;;;13.60;100.00;100564.34;5392883;26;20030;-62
2024/05/05 04:59:56;;;;;;;;;;;;;;;13.64;100.00;100557.31;5392829;26;20000;-62
2024/05/05 05:02:22;;;;;;;;;;;;;;;13.58;100.00;100560.75;5409547;26;19929;-62
2024/05/05 05:04:47;;;;;;;;;;;;;;;13.52;100.00;100563.34;5400446;26;19928;-60
2024/05/05 05:07:12;;;;;;;;;;;;;;;13.52;100.00;100558.03;5390385;26;19960;-61
2024/05/05 05:09:37;;;;;;;;;;;;;;;13.66;100.00;100551.13;5396202;26;19930;-61
2024/05/05 05:12:02;;;;;;;;;;;;;;;13.72;100.00;100552.94;5386035;26;19943;-61
2024/05/05 05:14:28;;;;;;;;;;;;;;;13.73;100.00;100542.34;5387376;26;19959;-61
2024/05/05 05:16:53;;;;;;;;;;;;;;;13.81;100.00;100546.00;5401844;26;19989;-62
2024/05/05 05:19:18;;;;;;;;;;;;;;;13.75;100.00;100542.38;5392924;26;20055;-61
2024/05/05 05:21:43;;;;;;;;;;;;;;;13.79;100.00;100531.78;5377984;26;19961;-61
2024/05/05 05:24:08;;;;;;;;;;;;;;;13.82;100.00;100525.63;5375405;26;19930;-61
2024/05/05 05:26:34;;;;;;;;;;;;;;;13.92;100.00;100512.44;5395268;26;19929;-60
2024/05/05 05:28:59;;;;;;;;;;;;;;;13.90;100.00;100506.22;5399176;26;19964;-61
2024/05/05 05:31:24;;;;;;;;;;;;;;;13.89;100.00;100507.09;5381635;26;19936;-61
2024/05/05 05:33:49;;;;;;;;;;;;;;;13.99;100.00;100502.78;5391178;26;19929;-61
2024/05/05 05:36:14;;;;;;;;;;;;;;;14.01;100.00;100501.03;5376390;26;19937;-61
2024/05/05 05:38:40;;;;;;;;;;;;;;;14.09;100.00;100499.31;5404918;26;20380;-62
2024/05/05 05:41:05;;;;;;;;;;;;;;;14.24;100.00;100498.56;5424839;26;19997;-61
2024/05/05 05:43:30;;;;;;;;;;;;;;;14.17;100.00;100480.78;5410804;26;19929;-60
2024/05/05 05:45:55;;;;;;;;;;;;;;;14.14;100.00;100467.47;5415422;26;19929;-61
2024/05/05 05:48:20;;;;;;;;;;;;;;;14.17;100.00;100465.72;5410724;26;20072;-61
2024/05/05 05:50:46;;;;;;;;;;;;;;;14.45;100.00;100456.22;5412719;26;20019;-60
2024/05/05 05:53:14;;;;;;;;;;;;;;;14.50;100.00;100458.91;5422368;26;19937;-60
2024/05/05 05:55:39;;;;;;;;;;;;;;;14.58;100.00;100447.44;5417392;26;19963;-59
2024/05/05 05:58:04;;;;;;;;;;;;;;;14.69;100.00;100443.97;5417411;26;19970;-61
2024/05/05 06:00:31;;;;;;;;;;;;;;;14.60;100.00;100442.13;5416290;26;20877;-61
2024/05/05 06:02:56;;;;;;;;;;;;;;;14.59;100.00;100443.88;5407748;26;19929;-61
2024/05/05 06:05:21;;;;;;;;;;;;;;;14.72;100.00;100433.34;5375457;26;20631;-61
2024/05/05 06:07:47;;;;;;;;;;;;;;;14.73;100.00;100437.75;5396875;26;19963;-63
2024/05/05 06:10:12;;;;;;;;;;;;;;;14.77;100.00;100420.94;5374991;26;19936;-60
2024/05/05 06:12:37;;;;;;;;;;;;;;;14.94;100.00;100429.88;5375304;26;20408;-61
2024/05/05 06:15:02;;;;;;;;;;;;;;;14.96;100.00;100422.78;5381349;26;20380;-60
2024/05/05 06:17:27;;;;;;;;;;;;;;;15.00;100.00;100424.59;5401451;26;19929;-61
2024/05/05 06:19:53;;;;;;;;;;;;;;;15.11;100.00;100421.97;5381551;26;19930;-60
2024/05/05 06:22:18;;;;;;;;;;;;;;;15.23;100.00;100412.25;5380819;26;20464;-60
2024/05/05 06:24:43;;;;;;;;;;;;;;;15.24;100.00;100408.69;5388498;26;19998;-62
2024/05/05 06:27:08;;;;;;;;;;;;;;;15.07;100.00;100410.41;5375340;26;19983;-61
2024/05/05 06:29:33;;;;;;;;;;;;;;;14.97;100.00;100414.81;5400798;26;19985;-60
2024/05/05 06:31:59;;;;;;;;;;;;;;;14.93;100.00;100402.38;5385869;26;19963;-63
2024/05/05 06:34:24;;;;;;;;;;;;;;;15.11;100.00;100406.88;5406263;26;19936;-62
2024/05/05 06:36:49;;;;;;;;;;;;;;;15.09;100.00;100408.63;5389931;26;19930;-61
2024/05/05 06:39:15;;;;;;;;;;;;;;;15.21;100.00;100387.41;5399802;26;19967;-61
2024/05/05 06:41:40;;;;;;;;;;;;;;;15.13;100.00;100389.13;5377719;26;19964;-61
2024/05/05 06:44:05;;;;;;;;;;;;;;;15.33;100.00;100391.88;5385559;26;20023;-61
2024/05/05 06:46:30;;;;;;;;;;;;;;;15.33;100.00;100386.53;5389715;26;20861;-62
2024/05/05 06:48:56;;;;;;;;;;;;;;;15.57;100.00;100385.72;5401609;26;20609;-62
2024/05/05 06:51:24;;;;;;;;;;;;;;;15.33;100.00;100384.75;5381862;26;19936;-61
2024/05/05 06:53:49;;;;;;;;;;;;;;;15.26;100.00;100390.06;5382029;26;20056;-62
2024/05/05 06:56:14;;;;;;;;;;;;;;;15.41;100.00;100382.09;5399441;26;19980;-62
2024/05/05 06:58:39;;;;;;;;;;;;;;;15.32;100.00;100382.97;5376788;26;19930;-61
2024/05/05 07:01:04;;;;;;;;;;;;;;;15.22;100.00;100378.53;5386526;26;19929;-61
2024/05/05 07:03:30;;;;;;;;;;;;;;;15.27;100.00;100384.72;5380890;26;19929;-61
2024/05/05 07:05:55;;;;;;;;;;;;;;;15.53;100.00;100386.56;5390397;26;19936;-62
2024/05/05 07:08:20;;;;;;;;;;;;;;;15.63;100.00;100388.38;5374927;26;19997;-61
2024/05/05 07:10:45;;;;;;;;;;;;;;;15.61;100.00;100374.16;5374226;26;19936;-62
2024/05/05 07:13:10;;;;;;;;;;;;;;;15.69;100.00;100363.53;5389535;26;19936;-60
2024/05/05 07:15:36;;;;;;;;;;;;;;;15.99;100.00;100358.19;5383296;26;19930;-61
2024/05/05 07:18:01;;;;;;;;;;;;;;;16.09;100.00;100348.41;5374447;26;19941;-61
2024/05/05 07:20:26;;;;;;;;;;;;;;;16.01;100.00;100351.97;5378991;26;19952;-62
2024/05/05 07:22:52;;;;;;;;;;;;;;;16.26;100.00;100346.59;5387632;26;20447;-62
2024/05/05 07:25:17;;;;;;;;;;;;;;;16.54;100.00;100344.72;5390729;26;19963;-63
2024/05/05 07:27:42;;;;;;;;;;;;;;;16.75;100.00;100336.69;5374561;26;19959;-61
2024/05/05 07:30:07;;;;;;;;;;;;;;;16.58;100.00;100342.06;5394950;26;19929;-62
2024/05/05 07:32:32;;;;;;;;;;;;;;;16.53;100.00;100329.59;5376557;26;19930;-62
2024/05/05 07:34:58;;;;;;;;;;;;;;;16.26;100.00;100341.25;5386382;26;19929;-61
2024/05/05 07:37:23;;;;;;;;;;;;;;;16.25;100.00;100331.50;5378748;26;19985;-61
2024/05/05 07:39:48;;;;;;;;;;;;;;;16.22;100.00;100334.16;5407076;26;19929;-61
2024/05/05 07:42:13;;;;;;;;;;;;;;;16.56;100.00;100340.28;5402878;26;19978;-59
2024/05/05 07:44:38;;;;;;;;;;;;;;;16.65;100.00;100338.47;5384501;26;19962;-60
2024/05/05 07:47:03;;;;;;;;;;;;;;;16.74;100.00;100328.66;5384725;26;19930;-58
2024/05/05 07:49:29;;;;;;;;;;;;;;;16.65;100.00;100330.47;5374272;26;19976;-60
2024/05/05 07:51:54;;;;;;;;;;;;;;;16.60;100.00;100337.59;5375361;26;19999;-59
2024/05/05 07:54:20;;;;;;;;;;;;;;;16.61;100.00;100327.81;5384790;26;19996;-59
2024/05/05 07:56:45;;;;;;;;;;;;;;;16.52;100.00;100334.06;5401044;26;19960;-61
2024/05/05 07:59:10;;;;;;;;;;;;;;;16.64;100.00;100326.03;5386217;26;19943;-64
2024/05/05 08:01:36;;;;;;;;;;;;;;;16.65;100.00;100324.25;5394652;26;19930;-61
2024/05/05 08:04:01;;;;;;;;;;;;;;;16.70;100.00;100323.34;5387468;26;20350;-62
2024/05/05 08:06:26;;;;;;;;;;;;;;;16.75;100.00;100314.44;5382329;26;20020;-61
2024/05/05 08:08:51;;;;;;;;;;;;;;;16.35;100.00;100315.44;5374929;26;19972;-61
2024/05/05 08:11:17;;;;;;;;;;;;;;;16.62;100.00;100314.44;5376655;26;19986;-61
2024/05/05 08:13:42;;;;;;;;;;;;;;;16.84;100.00;100303.69;5376388;26;19937;-62
2024/05/05 08:16:07;;;;;;;;;;;;;;;16.97;100.00;100303.63;5385500;26;19959;-62
2024/05/05 08:18:32;;;;;;;;;;;;;;;17.33;100.00;100302.47;5372429;26;20015;-60
2024/05/05 08:20:57;;;;;;;;;;;;;;;17.70;100.00;100300.44;5372228;26;20366;-61
2024/05/05 08:23:23;;;;;;;;;;;;;;;17.92;100.00;100290.44;5372561;26;19933;-62
2024/05/05 08:25:48;;;;;;;;;;;;;;;18.17;100.00;100279.50;5375470;26;19930;-60
2024/05/05 08:28:13;;;;;;;;;;;;;;;18.32;100.00;100268.59;5372453;26;19960;-62
2024/05/05 08:30:38;;;;;;;;;;;;;;;18.71;100.00;100276.16;5393860;26;19987;-63
2024/05/05 08:33:04;;;;;;;;;;;;;;;18.68;100.00;100268.19;5371777;26;19937;-61
2024/05/05 08:35:29;;;;;;;;;;;;;;;18.47;100.00;100265.75;5392789;26;19988;-62
2024/05/05 08:37:54;;;;;;;;;;;;;;;18.13;100.00;100272.41;5375894;26;19953;-61
2024/05/05 08:40:20;;;;;;;;;;;;;;;18.11;100.00;100266.19;5394100;26;19929;-62
2024/05/05 08:42:50;;;;;;;;;;;;;;;18.50;100.00;100268.38;5403451;26;20011;-61
2024/05/05 08:45:16;;;;;;;;;;;;;;;18.72;100.00;100269.88;5383006;26;19943;-60
2024/05/05 08:47:42;;;;;;;;;;;;;;;18.37;100.00;100256.03;5408819;26;19958;-60
2024/05/05 08:50:07;;;;;;;;;;;;;;;18.34;100.00;100261.47;5408740;26;19963;-62
2024/05/05 08:52:34;;;;;;;;;;;;;;;18.65;100.00;100268.22;5408145;26;19935;-61
2024/05/05 08:55:00;;;;;;;;;;;;;;;18.46;100.00;100255.94;5392848;26;20390;-63
2024/05/05 08:57:27;;;;;;;;;;;;;;;18.41;100.00;100252.44;5388331;26;19964;-61
2024/05/05 08:59:52;;;;;;;;;;;;;;;18.82;100.00;100237.66;5400605;26;19979;-61
2024/05/05 09:02:18;;;;;;;;;;;;;;;18.82;100.00;100240.31;5391919;26;19933;-62
2024/05/05 09:04:43;;;;;;;;;;;;;;;18.56;100.00;100238.84;5396435;26;20451;-61
2024/05/05 09:07:08;;;;;;;;;;;;;;;18.97;100.00;100237.41;5409684;26;19929;-61
2024/05/05 09:09:33;;;;;;;;;;;;;;;19.09;100.00;100237.22;5409166;26;19990;-61
2024/05/05 09:11:59;;;;;;;;;;;;;;;18.74;100.00;100246.66;5405051;26;19937;-61
2024/05/05 09:14:25;;;;;;;;;;;;;;;19.12;100.00;100239.84;5401932;26;19989;-62
2024/05/05 09:16:51;;;;;;;;;;;;;;;18.48;100.00;100202.41;5408742;26;19935;-63
2024/05/05 09:19:16;;;;;;;;;;;;;;;18.91;100.00;100234.81;5409471;26;20014;-61
2024/05/05 09:21:42;;;;;;;;;;;;;;;18.94;100.00;100232.97;5393027;26;19936;-62
2024/05/05 09:24:07;;;;;;;;;;;;;;;18.89;100.00;100233.94;5401555;26;19963;-62
2024/05/05 09:26:32;;;;;;;;;;;;;;;19.44;100.00;100223.22;5407600;26;19929;-61
2024/05/05 09:28:58;;;;;;;;;;;;;;;19.96;100.00;100208.91;5407437;26;19953;-61
2024/05/05 09:31:23;;;;;;;;;;;;;;;20.32;100.00;100199.22;5396624;26;19941;-61
2024/05/05 09:33:49;;;;;;;;;;;;;;;19.92;100.00;100199.13;5399909;26;19958;-62
2024/05/05 09:36:16;;;;;;;;;;;;;;;20.10;100.00;100194.28;5400402;26;19929;-62
2024/05/05 09:38:42;;;;;;;;;;;;;;;19.39;100.00;100204.53;5385797;26;19930;-61
2024/05/05 09:41:08;;;;;;;;;;;;;;;19.22;100.00;100200.41;5405958;26;19929;-62
2024/05/05 09:43:33;;;;;;;;;;;;;;;19.33;100.00;100198.44;5407067;26;19977;-61
2024/05/05 09:46:00;;;;;;;;;;;;;;;19.09;100.00;100189.00;5373381;26;20323;-62
2024/05/05 09:48:27;;;;;;;;;;;;;;;18.97;100.00;100195.44;5373286;26;19930;-63
2024/05/05 09:51:03;;;;;;;;;;;;;;;19.58;100.00;100188.16;5381107;26;19930;-62
2024/05/05 09:53:36;;;;;;;;;;;;;;;20.42;100.00;100184.72;5406542;26;19970;-61
2024/05/05 09:56:05;;;;;;;;;;;;;;;19.79;100.00;100177.03;5412649;26;19929;-63
2024/05/05 09:58:31;;;;;;;;;;;;;;;19.67;100.00;100172.81;5411331;26;20353;-62
2024/05/05 10:00:56;;;;;;;;;;;;;;;19.27;100.00;100167.25;5387613;26;19936;-62
2024/05/05 10:03:22;;;;;;;;;;;;;;;19.19;100.00;100179.03;5396524;26;19932;-61
2024/05/05 10:05:47;;;;;;;;;;;;;;;18.91;100.00;100173.22;5403707;26;19999;-62
2024/05/05 10:08:12;;;;;;;;;;;;;;;19.11;100.00;100177.34;5408893;26;19929;-60
2024/05/05 10:10:38;;;;;;;;;;;;;;;19.80;100.00;100163.63;5402589;26;19929;-63
2024/05/05 10:13:04;;;;;;;;;;;;;;;20.71;100.00;100155.41;5381917;26;19930;-60
2024/05/05 10:15:29;;;;;;;;;;;;;;;20.57;100.00;100138.75;5405896;26;19949;-61
2024/05/05 10:18:12;;;;;;;;;;;;;;;20.58;100.00;100137.81;5412632;26;20345;-63
2024/05/05 10:20:41;;;;;;;;;;;;;;;20.30;100.00;100145.56;5391617;26;19929;-60
2024/05/05 10:23:10;;;;;;;;;;;;;;;19.65;100.00;100138.91;5389421;26;20073;-61
2024/05/05 10:25:35;;;;;;;;;;;;;;;19.60;100.00;100138.09;5382776;26;19998;-60
2024/05/05 10:28:00;;;;;;;;;;;;;;;19.28;100.00;100144.91;5406814;26;19937;-59
2024/05/05 10:30:33;;;;;;;;;;;;;;;19.27;100.00;100145.81;5395657;26;19929;-60
2024/05/05 10:32:58;;;;;;;;;;;;;;;19.26;100.00;100141.38;5377311;26;19964;-61
2024/05/05 10:35:23;;;;;;;;;;;;;;;19.26;100.00;100137.81;5387302;26;19997;-61
2024/05/05 10:37:49;;;;;;;;;;;;;;;19.24;100.00;100139.63;5395339;26;20372;-61
2024/05/05 10:40:17;;;;;;;;;;;;;;;19.74;100.00;100130.69;5392337;26;19978;-60
2024/05/05 10:42:42;;;;;;;;;;;;;;;20.30;100.00;100129.47;5396991;26;19970;-60
2024/05/05 10:45:11;;;;;;;;;;;;;;;20.20;100.00;100129.72;5394997;26;19929;-64
2024/05/05 10:47:38;;;;;;;;;;;;;;;20.03;100.00;100122.91;5399617;26;20011;-60
2024/05/05 10:50:04;;;;;;;;;;;;;;;19.85;100.00;100117.06;5404179;26;19930;-62
2024/05/05 10:52:29;;;;;;;;;;;;;;;19.54;100.00;100111.44;5386228;26;19983;-61
2024/05/05 10:54:54;;;;;;;;;;;;;;;19.97;100.00;100096.22;5400220;26;19960;-63
2024/05/05 10:57:20;;;;;;;;;;;;;;;19.82;100.00;100107.25;5387122;26;20438;-62
2024/05/05 10:59:47;;;;;;;;;;;;;;;19.83;100.00;100106.34;5400940;26;19936;-59
2024/05/05 11:02:23;;;;;;;;;;;;;;;20.11;100.00;100099.47;5404364;26;20065;-61
2024/05/05 11:04:48;;;;;;;;;;;;;;;20.31;100.00;100101.72;5386836;26;19963;-62
2024/05/05 11:07:13;;;;;;;;;;;;;;;20.15;100.00;100090.44;5373992;26;20007;-61
2024/05/05 11:09:38;;;;;;;;;;;;;;;20.24;100.00;100088.50;5386447;26;19953;-61
2024/05/05 11:12:03;;;;;;;;;;;;;;;20.44;100.00;100084.44;5376313;26;20343;-61
2024/05/05 11:14:29;;;;;;;;;;;;;;;20.49;100.00;100082.53;5385072;26;20457;-62
2024/05/05 11:16:55;;;;;;;;;;;;;;;20.57;100.00;100074.31;5374694;26;19983;-60
2024/05/05 11:19:20;;;;;;;;;;;;;;;20.45;100.00;100077.25;5380290;26;19928;-61
2024/05/05 11:21:47;;;;;;;;;;;;;;;20.76;100.00;100067.56;5380159;26;19929;-61
2024/05/05 11:24:13;;;;;;;;;;;;;;;20.34;100.00;100060.50;5388392;26;19929;-60
2024/05/05 11:26:38;;;;;;;;;;;;;;;20.55;100.00;100060.03;5375950;26;19944;-61
2024/05/05 11:29:03;;;;;;;;;;;;;;;20.31;100.00;100052.53;5399147;26;19967;-62
2024/05/05 11:31:29;;;;;;;;;;;;;;;20.20;100.00;100054.59;5403012;26;19967;-63
2024/05/05 11:33:56;;;;;;;;;;;;;;;20.19;100.00;100052.81;5377718;26;20449;-62
2024/05/05 11:36:21;;;;;;;;;;;;;;;20.34;100.00;100047.97;5375207;26;19995;-61
2024/05/05 11:38:47;;;;;;;;;;;;;;;20.20;100.00;100043.84;5398229;26;19967;-62
2024/05/05 11:41:12;;;;;;;;;;;;;;;20.34;100.00;100036.34;5380646;26;19960;-62
2024/05/05 11:43:37;;;;;;;;;;;;;;;20.42;100.00;100034.41;5387266;26;20338;-62
2024/05/05 11:46:03;;;;;;;;;;;;;;;20.72;100.00;100028.28;5380624;26;20477;-62
2024/05/05 11:48:47;;;;;;;;;;;;;;;21.42;100.00;100020.13;5382931;26;19991;-61
2024/05/05 11:51:31;;;;;;;;;;;;;;;21.16;100.00;100018.13;5377166;26;19930;-60
2024/05/05 11:54:00;;;;;;;;;;;;;;;21.18;100.00;100016.28;5374557;26;19968;-62
2024/05/05 11:56:25;;;;;;;;;;;;;;;21.15;100.00;100021.75;5382513;26;19971;-62
2024/05/05 11:58:50;;;;;;;;;;;;;;;20.90;100.00;100007.22;5381487;26;20301;-62
2024/05/05 12:01:31;;;;;;;;;;;;;;;20.91;100.00;100006.31;5380002;26;19929;-62
2024/05/05 12:03:57;;;;;;;;;;;;;;;21.41;100.00;100003.13;5378688;26;19929;-63
2024/05/05 12:06:34;;;;;;;;;;;;;;;21.58;100.00;99999.94;5390997;26;20357;-62
2024/05/05 12:09:00;;;;;;;;;;;;;;;21.94;100.00;99987.19;5390615;26;19941;-61
2024/05/05 12:11:40;;;;;;;;;;;;;;;22.11;100.00;99983.97;5374750;26;19969;-61
2024/05/05 12:14:05;;;;;;;;;;;;;;;22.54;100.00;99978.94;5380536;26;19940;-62
2024/05/05 12:16:31;;;;;;;;;;;;;;;22.29;100.00;99977.13;5383565;26;20468;-62
2024/05/05 12:19:00;;;;;;;;;;;;;;;21.87;100.00;99982.91;5381437;26;19936;-63
2024/05/05 12:21:25;;;;;;;;;;;;;;;21.31;100.00;99984.59;5378476;26;20254;-61